Aviation Digital Data Service (ADDS)

Output produced by METARs form (1009 UTC 28 September 2016)
found at http://aviationweather.gov/adds/metars/
 
KSBY 280821Z 2808/2906 05003KT 5SM BR BKN015 OVC040 
     FM281300 06008KT P6SM OVC015 
     FM281500 08007KT P6SM BKN035 
     FM281800 11007KT P6SM BKN070 
     FM282200 11007KT 5SM -SHRA BR OVC070